Nyk Olympus — 3EOS7 — position and weather

sailwx.info

Track history (hours):
 
Tides and Currents Weather Stations Pressure Air Temp Water Temp Dewpoint Dewpoint Depression Visibility Wind Speed Wind Dir Waves Ship Positions

Nyk Olympus

Last reported at 2016-Aug-15 09:14 UTC. Time now 2016-Aug-26 10:11 UTC.
Position N 36°14' E 014°55'.
Warning: this ship's position is 11 days out of date.

Length 335 m; draft 12.7 m.

Type: Other ship. MMSI: 372478000.

Date/timePositionNaut miles runAvg speedWind from/ knotsBaromVisibWave heightAir tempDewpointWater temp
2016-Aug-15 09:14N 36°14' E 014°55'1216.8
2016-Aug-15 08:32N 36°17' E 014°40'1717.7
2016-Aug-15 07:33N 36°23' E 014°20'2019.8
2016-Aug-15 06:33N 36°29' E 013°57'3718.4
2016-Aug-15 04:33N 36°40' E 013°13'1717.2
2016-Aug-15 03:33N 36°45' E 012°53'1817.0
2016-Aug-15 02:28N 36°50' E 012°30'1617.3
2016-Aug-15 01:33N 36°55' E 012°11'5217.4
2016-Aug-14 22:33N 37°19' E 011°14'6816.8
2016-Aug-14 18:32N 37°32' E 009°50'1717.2
2016-Aug-14 17:33N 37°28' E 009°30'1717.0
2016-Aug-14 16:33N 37°23' E 009°09'1716.4
2016-Aug-14 15:33N 37°19' E 008°49'1515.6
2016-Aug-14 14:33N 37°18' E 008°29'1615.6
2016-Aug-14 13:33N 37°18' E 008°10'26915.7
2016-Aug-13 20:22N 36°58' E 002°33'24515.4
2016-Aug-13 04:25N 36°19' W 002°29'1416.6
2016-Aug-13 03:33N 36°18' W 002°46'1817.5
2016-Aug-13 02:32N 36°15' W 003°08'9618.2
2016-Aug-12 21:14N 36°00' W 005°06'1217.3
2016-Aug-12 20:33N 35°58' W 005°20'1615.6
2016-Aug-12 19:33N 35°55' W 005°39'1615.5
2016-Aug-12 18:30N 35°54' W 005°59'18915.2
2016-Aug-12 06:04N 36°29' W 009°49'2616.4
2016-Aug-12 04:30N 36°38' W 010°19'10116.3
2016-Aug-11 22:17N 37°10' W 012°19'1716.7
2016-Aug-11 21:17N 37°15' W 012°39'1216.6
2016-Aug-11 20:33N 37°19' W 012°53'1716.5
2016-Aug-11 19:32N 37°24' W 013°13'1616.0
2016-Aug-11 18:32N 37°29' W 013°32'1616.1
2016-Aug-11 17:34N 37°34' W 013°51'25115.3
2016-Aug-11 01:09N 38°41' W 018°59'9914.7
2016-Aug-10 18:23N 39°04' W 021°03'1315.2
2016-Aug-10 17:31N 39°06' W 021°19'13015.4
2016-Aug-10 09:04N 39°32' W 024°04'1115.3
2016-Aug-10 08:20N 39°35' W 024°18'1215.4
2016-Aug-10 07:32N 39°37' W 024°34'3115.5
2016-Aug-10 05:30N 39°42' W 025°14'1515.4
2016-Aug-10 04:33N 39°45' W 025°32'1615.6
2016-Aug-10 03:33N 39°47' W 025°52'1615.5
2016-Aug-10 02:33N 39°50' W 026°12'1515.2
2016-Aug-10 01:32N 39°53' W 026°32'1615.4
2016-Aug-10 00:29N 39°55' W 026°53'2215.4
2016-Aug-09 23:04N 39°59' W 027°21'2815.4
2016-Aug-09 21:14N 40°03' W 027°57'1215.6
2016-Aug-09 20:27N 40°04' W 028°13'1415.6
2016-Aug-09 19:32N 40°06' W 028°32'1615.6
2016-Aug-09 18:32N 40°09' W 028°52'1715.9
2016-Aug-09 17:29N 40°11' W 029°14'1516.1
2016-Aug-09 16:34N 40°13' W 029°33'1616.3
2016-Aug-09 15:33N 40°14' W 029°54'1716.8
2016-Aug-09 14:32N 40°16' W 030°16'1916.6
2016-Aug-09 13:24N 40°19' W 030°41'1416.5
2016-Aug-09 12:33N 40°20' W 030°59'1616.5
2016-Aug-09 11:33N 40°22' W 031°21'1616.1
2016-Aug-09 10:33N 40°24' W 031°42'1918.9
2016-Aug-09 09:33N 40°26' W 032°06'1717.0
2016-Aug-09 08:33N 40°27' W 032°28'1716.7
2016-Aug-09 07:34N 40°29' W 032°50'3316.5
2016-Aug-09 05:33N 40°31' W 033°34'1616.3
2016-Aug-09 04:33N 40°33' W 033°55'6615.2
2016-Aug-09 00:12N 40°38' W 035°22'1314.9
2016-Aug-08 23:21N 40°38' W 035°39'  
Track history (hours):
 
Tides and Currents Weather Stations Pressure Air Temp Water Temp Dewpoint Dewpoint Depression Visibility Wind Speed Wind Dir Waves Ship Positions

Nyk Olympus

Last reported at 2016-Aug-15 09:14 UTC. Time now 2016-Aug-26 10:11 UTC.
Position N 36°14' E 014°55'.
Warning: this ship's position is 11 days out of date.

Length 335 m; draft 12.7 m.

Type: Other ship. MMSI: 372478000.

Date/timePositionNaut miles runAvg speedWind from/ knotsBaromVisibWave heightAir tempDewpointWater temp
2016-Aug-15 09:14N 36°14' E 014°55'1216.8
2016-Aug-15 08:32N 36°17' E 014°40'1717.7
2016-Aug-15 07:33N 36°23' E 014°20'2019.8
2016-Aug-15 06:33N 36°29' E 013°57'3718.4
2016-Aug-15 04:33N 36°40' E 013°13'1717.2
2016-Aug-15 03:33N 36°45' E 012°53'1817.0
2016-Aug-15 02:28N 36°50' E 012°30'1617.3
2016-Aug-15 01:33N 36°55' E 012°11'5217.4
2016-Aug-14 22:33N 37°19' E 011°14'6816.8
2016-Aug-14 18:32N 37°32' E 009°50'1717.2
2016-Aug-14 17:33N 37°28' E 009°30'1717.0
2016-Aug-14 16:33N 37°23' E 009°09'1716.4
2016-Aug-14 15:33N 37°19' E 008°49'1515.6
2016-Aug-14 14:33N 37°18' E 008°29'1615.6
2016-Aug-14 13:33N 37°18' E 008°10'26915.7
2016-Aug-13 20:22N 36°58' E 002°33'24515.4
2016-Aug-13 04:25N 36°19' W 002°29'1416.6
2016-Aug-13 03:33N 36°18' W 002°46'1817.5
2016-Aug-13 02:32N 36°15' W 003°08'9618.2
2016-Aug-12 21:14N 36°00' W 005°06'1217.3
2016-Aug-12 20:33N 35°58' W 005°20'1615.6
2016-Aug-12 19:33N 35°55' W 005°39'1615.5
2016-Aug-12 18:30N 35°54' W 005°59'18915.2
2016-Aug-12 06:04N 36°29' W 009°49'2616.4
2016-Aug-12 04:30N 36°38' W 010°19'10116.3
2016-Aug-11 22:17N 37°10' W 012°19'1716.7
2016-Aug-11 21:17N 37°15' W 012°39'1216.6
2016-Aug-11 20:33N 37°19' W 012°53'1716.5
2016-Aug-11 19:32N 37°24' W 013°13'1616.0
2016-Aug-11 18:32N 37°29' W 013°32'1616.1
2016-Aug-11 17:34N 37°34' W 013°51'25115.3
2016-Aug-11 01:09N 38°41' W 018°59'9914.7
2016-Aug-10 18:23N 39°04' W 021°03'1315.2
2016-Aug-10 17:31N 39°06' W 021°19'13015.4
2016-Aug-10 09:04N 39°32' W 024°04'1115.3
2016-Aug-10 08:20N 39°35' W 024°18'1215.4
2016-Aug-10 07:32N 39°37' W 024°34'3115.5
2016-Aug-10 05:30N 39°42' W 025°14'1515.4
2016-Aug-10 04:33N 39°45' W 025°32'1615.6
2016-Aug-10 03:33N 39°47' W 025°52'1615.5
2016-Aug-10 02:33N 39°50' W 026°12'1515.2
2016-Aug-10 01:32N 39°53' W 026°32'1615.4
2016-Aug-10 00:29N 39°55' W 026°53'2215.4
2016-Aug-09 23:04N 39°59' W 027°21'2815.4
2016-Aug-09 21:14N 40°03' W 027°57'1215.6
2016-Aug-09 20:27N 40°04' W 028°13'1415.6
2016-Aug-09 19:32N 40°06' W 028°32'1615.6
2016-Aug-09 18:32N 40°09' W 028°52'1715.9
2016-Aug-09 17:29N 40°11' W 029°14'1516.1
2016-Aug-09 16:34N 40°13' W 029°33'1616.3
2016-Aug-09 15:33N 40°14' W 029°54'1716.8
2016-Aug-09 14:32N 40°16' W 030°16'1916.6
2016-Aug-09 13:24N 40°19' W 030°41'1416.5
2016-Aug-09 12:33N 40°20' W 030°59'1616.5
2016-Aug-09 11:33N 40°22' W 031°21'1616.1
2016-Aug-09 10:33N 40°24' W 031°42'1918.9
2016-Aug-09 09:33N 40°26' W 032°06'1717.0
2016-Aug-09 08:33N 40°27' W 032°28'1716.7
2016-Aug-09 07:34N 40°29' W 032°50'3316.5
2016-Aug-09 05:33N 40°31' W 033°34'1616.3
2016-Aug-09 04:33N 40°33' W 033°55'6615.2
2016-Aug-09 00:12N 40°38' W 035°22'1314.9
2016-Aug-08 23:21N 40°38' W 035°39'  

Dump ship's entire track history